Report METAR

 

KSJC - San Jose, California, USA
Distance from station: NE 14km
Dati ricevuti: 23/06/2024 15:53
Sereno
Sereno
 Vento da calmo
Vento: Calma
Temperatura: 22°C
P.to Rugiada: 13°C
Umidità: 57%
Barometro: 1012.2 hPa
Nuvole: Sereno
Visibility: 16 km
2024/06/23 15:53 KSJC 231553Z 00000KT 10SM CLR 22/13 A2989 RMK AO2 SLP121 T02170133
KNUQ - Moffett Nas/Mtn, California, USA
Distance from station: N 14km
Dati ricevuti: 23/06/2024 15:55
Sereno
Sereno
 Vento da Variabile
Vento: Variabile 6 km/h
Temperatura: 18°C
P.to Rugiada: 14°C
Umidità: 78%
Barometro: 1012.5 hPa
Nuvole: Sereno
Visibility: 13 km
2024/06/23 15:55 KNUQ 231555Z AUTO VRB03KT 8SM CLR 18/14 A2990 RMK AO2
 
KPAO - Palo Alto, California, USA
Distance from station: NNO 23km
Dati ricevuti: 23/06/2024 15:47
Sereno
Sereno
 Vento da N
Vento: N 11 km/h
Temperatura: 18°C
P.to Rugiada: 14°C
Umidità: 78%
Barometro: 1012.5 hPa
Nuvole: Sereno
Visibility: 13 km
2024/06/23 15:47 KPAO 231547Z 36006KT 8SM SKC 18/14 A2990
KRHV - San Jose/Reid, California, USA
Distance from station: ENE 19km
Dati ricevuti: 23/06/2024 15:57
Sereno
Sereno
 Vento da calmo
Vento: Calma
Temperatura: 21°C
P.to Rugiada: 11°C
Umidità: 53%
Barometro: 1012.5 hPa
Nuvole: Sereno
Visibility: 16 km
2024/06/23 15:57 KRHV 231557Z 00000KT 10SM SKC 21/11 A2990
 
KOAK - Oakland, California, USA
Distance from station: NNO 50km
Dati ricevuti: 23/06/2024 15:53
Sereno
Sereno
 Vento da NO
Vento: NO 15 km/h
Temperatura: 16°C
P.to Rugiada: 13°C
Umidità: 83%
Barometro: 1012.9 hPa
Nuvole: Sereno
Visibility: 16 km
2024/06/23 15:53 KOAK 231553Z 31008KT 10SM CLR 16/13 A2991 RMK AO2 SLP126 T01610128
KSQL - San Carlos Airpo, California, USA
Distance from station: NO 34km
Dati ricevuti: 23/06/2024 15:47
Sereno
Sereno
 Vento da calmo
Vento: Calma
Temperatura: 18°C
P.to Rugiada: 13°C
Umidità: 73%
Barometro: 1012.5 hPa
Nuvole: Sereno
Visibility: 16 km
2024/06/23 15:47 KSQL 231547Z 00000KT 10SM CLR 18/13 A2990
 
KSFO - San Francisco, California, USA
Distance from station: NO 49km
Dati ricevuti: 23/06/2024 15:56
Few Clouds
Few Clouds
 Vento da NO
Vento: NO 15 km/h
Temperatura: 16°C
P.to Rugiada: 11°C
Umidità: 72%
Barometro: 1012.5 hPa
Nuvole: Few Clouds
Visibility: 16 km
Cloud details: Few Clouds 183 m
2024/06/23 15:56 KSFO 231556Z 32008KT 10SM FEW006 16/11 A2990 RMK AO2 SLP124 T01560111
KE16 - San Martin, California, USA
Distance from station: ESE 43km
Dati ricevuti: 23/06/2024 15:35
Sereno
Sereno
 Vento da SSE
Vento: SSE 9 km/h
Temperatura: 19°C
P.to Rugiada: 10°C
Umidità: 56%
Barometro: 1013.2 hPa
Nuvole: Sereno
Visibility: 16 km
2024/06/23 15:35 KE16 231535Z AUTO 15005KT 10SM CLR 19/10 A2992 RMK AO2 PWINO PNO
 
KWVI - Watsonville, California, USA
Distance from station: SSE 44km
Dati ricevuti: 23/06/2024 15:53
Sereno
Sereno
 Vento da SSE
Vento: SSE 6 km/h
Temperatura: 16°C
P.to Rugiada: 12°C
Umidità: 77%
Barometro: 1013.5 hPa
Nuvole: Sereno
Visibility: 16 km
2024/06/23 15:53 KWVI 231553Z AUTO 15003KT 10SM CLR 16/12 A2993 RMK AO2 SLP133 T01610117
KHAF - Half Moon Bay, California, USA
Distance from station: ONO 50km
Dati ricevuti: 23/06/2024 15:55
Mist, Coperto
Mist, Coperto
 Vento da SSE
Vento: SSE 13 km/h
Temperatura: 12°C
P.to Rugiada: 12°C
Umidità: 100%
Barometro: 1013.5 hPa
Summary: Mist
Nuvole: Coperto
Visibility: 2.8 km
Cloud details: Coperto 91 m
2024/06/23 15:55 KHAF 231555Z AUTO 16007KT 1 3/4SM BR OVC003 12/12 A2993 RMK AO2
 
KHWD - Hayward, California, USA
Distance from station: N 44km
Dati ricevuti: 23/06/2024 15:54
Sereno
Sereno
 Vento da ONO
Vento: ONO 9 km/h
Temperatura: 19°C
P.to Rugiada: 12°C
Umidità: 64%
Barometro: 1012.2 hPa
Nuvole: Sereno
Visibility: 16 km
2024/06/23 15:54 KHWD 231554Z 29005KT 10SM CLR 19/12 A2989 RMK AO2 SLP130 T01890117
KLVK - Livermore, California, USA
Distance from station: NNE 51km
Dati ricevuti: 23/06/2024 15:53
Sereno
Sereno
 Vento da O
Vento: O 6 km/h
Temperatura: 23°C
P.to Rugiada: 11°C
Umidità: 47%
Barometro: 1011.5 hPa
Nuvole: Sereno
Visibility: 14 km
2024/06/23 15:53 KLVK 231553Z AUTO 26003KT 9SM CLR 23/11 A2987 RMK AO2 SLP108 T02330111